sensor_id;sensor_type;location;lat;lon;timestamp;temperature;humidity
29539;DHT22;16482;51.046;4.498;2023-12-28T00:00:25;23.90;33.60
29539;DHT22;16482;51.046;4.498;2023-12-28T00:02:54;23.90;33.70
29539;DHT22;16482;51.046;4.498;2023-12-28T00:05:25;23.90;33.70
29539;DHT22;16482;51.046;4.498;2023-12-28T00:08:00;23.90;33.80
29539;DHT22;16482;51.046;4.498;2023-12-28T00:10:27;23.90;33.90
29539;DHT22;16482;51.046;4.498;2023-12-28T00:12:55;23.90;33.90
29539;DHT22;16482;51.046;4.498;2023-12-28T00:15:26;23.80;34.00
29539;DHT22;16482;51.046;4.498;2023-12-28T00:17:55;23.80;34.00
29539;DHT22;16482;51.046;4.498;2023-12-28T00:20:20;23.90;34.10
29539;DHT22;16482;51.046;4.498;2023-12-28T00:22:49;23.80;34.20
29539;DHT22;16482;51.046;4.498;2023-12-28T00:25:24;23.80;34.20
29539;DHT22;16482;51.046;4.498;2023-12-28T00:27:53;23.80;34.30
29539;DHT22;16482;51.046;4.498;2023-12-28T00:30:26;23.80;34.70
29539;DHT22;16482;51.046;4.498;2023-12-28T00:33:00;23.80;34.50
29539;DHT22;16482;51.046;4.498;2023-12-28T00:35:36;23.70;34.50
29539;DHT22;16482;51.046;4.498;2023-12-28T00:38:09;23.70;34.60
29539;DHT22;16482;51.046;4.498;2023-12-28T00:40:45;23.70;34.70
29539;DHT22;16482;51.046;4.498;2023-12-28T00:43:21;23.70;34.70
29539;DHT22;16482;51.046;4.498;2023-12-28T00:45:56;23.80;34.80
29539;DHT22;16482;51.046;4.498;2023-12-28T00:48:22;23.70;34.80
29539;DHT22;16482;51.046;4.498;2023-12-28T00:50:52;23.70;35.00
29539;DHT22;16482;51.046;4.498;2023-12-28T00:53:27;23.70;34.90
29539;DHT22;16482;51.046;4.498;2023-12-28T00:56:03;23.70;35.00
29539;DHT22;16482;51.046;4.498;2023-12-28T00:58:29;23.70;35.00
29539;DHT22;16482;51.046;4.498;2023-12-28T01:01:07;23.70;35.10
29539;DHT22;16482;51.046;4.498;2023-12-28T01:03:33;23.70;35.20
29539;DHT22;16482;51.046;4.498;2023-12-28T01:06:12;23.70;35.20
29539;DHT22;16482;51.046;4.498;2023-12-28T01:08:48;23.70;35.30
29539;DHT22;16482;51.046;4.498;2023-12-28T01:11:14;23.70;35.90
29539;DHT22;16482;51.046;4.498;2023-12-28T01:13:47;23.60;35.30
29539;DHT22;16482;51.046;4.498;2023-12-28T01:16:23;23.70;35.50
29539;DHT22;16482;51.046;4.498;2023-12-28T01:18:49;23.70;35.50
29539;DHT22;16482;51.046;4.498;2023-12-28T01:21:18;23.70;35.60
29539;DHT22;16482;51.046;4.498;2023-12-28T01:23:44;23.70;35.60
29539;DHT22;16482;51.046;4.498;2023-12-28T01:26:20;23.60;35.60
29539;DHT22;16482;51.046;4.498;2023-12-28T01:28:46;23.70;35.70
29539;DHT22;16482;51.046;4.498;2023-12-28T01:31:14;23.70;35.70
29539;DHT22;16482;51.046;4.498;2023-12-28T01:33:49;23.60;35.70
29539;DHT22;16482;51.046;4.498;2023-12-28T01:36:18;23.70;35.80
29539;DHT22;16482;51.046;4.498;2023-12-28T01:38:44;23.60;35.70
29539;DHT22;16482;51.046;4.498;2023-12-28T01:41:10;23.60;35.80
29539;DHT22;16482;51.046;4.498;2023-12-28T01:43:46;23.70;35.90
29539;DHT22;16482;51.046;4.498;2023-12-28T01:46:21;23.70;35.90
29539;DHT22;16482;51.046;4.498;2023-12-28T01:48:57;23.70;35.90
29539;DHT22;16482;51.046;4.498;2023-12-28T01:51:26;23.60;36.00
29539;DHT22;16482;51.046;4.498;2023-12-28T01:54:03;23.60;35.90
29539;DHT22;16482;51.046;4.498;2023-12-28T01:56:39;23.60;36.00
29539;DHT22;16482;51.046;4.498;2023-12-28T01:59:05;23.60;36.60
29539;DHT22;16482;51.046;4.498;2023-12-28T02:01:41;23.60;36.00
29539;DHT22;16482;51.046;4.498;2023-12-28T02:04:18;23.60;36.10
29539;DHT22;16482;51.046;4.498;2023-12-28T02:07:11;23.60;36.10
29539;DHT22;16482;51.046;4.498;2023-12-28T02:09:45;23.70;36.10
29539;DHT22;16482;51.046;4.498;2023-12-28T02:12:13;23.60;36.10
29539;DHT22;16482;51.046;4.498;2023-12-28T02:14:39;23.60;36.20
29539;DHT22;16482;51.046;4.498;2023-12-28T02:17:24;23.60;36.20
29539;DHT22;16482;51.046;4.498;2023-12-28T02:19:54;23.60;36.10
29539;DHT22;16482;51.046;4.498;2023-12-28T02:22:25;23.60;36.20
29539;DHT22;16482;51.046;4.498;2023-12-28T02:25:07;23.60;36.20
29539;DHT22;16482;51.046;4.498;2023-12-28T02:27:40;23.60;36.20
29539;DHT22;16482;51.046;4.498;2023-12-28T02:30:21;23.60;36.30
29539;DHT22;16482;51.046;4.498;2023-12-28T02:33:15;23.60;36.30
29539;DHT22;16482;51.046;4.498;2023-12-28T02:35:57;23.60;36.20
29539;DHT22;16482;51.046;4.498;2023-12-28T02:38:42;23.50;36.30
29539;DHT22;16482;51.046;4.498;2023-12-28T02:41:13;23.50;36.30
29539;DHT22;16482;51.046;4.498;2023-12-28T02:43:48;23.60;36.40
29539;DHT22;16482;51.046;4.498;2023-12-28T02:46:24;23.60;36.40
29539;DHT22;16482;51.046;4.498;2023-12-28T02:48:52;23.60;36.50
29539;DHT22;16482;51.046;4.498;2023-12-28T02:51:28;23.50;36.40
29539;DHT22;16482;51.046;4.498;2023-12-28T02:54:04;23.60;36.40
29539;DHT22;16482;51.046;4.498;2023-12-28T02:56:33;23.60;36.40
29539;DHT22;16482;51.046;4.498;2023-12-28T02:59:09;23.50;36.50
29539;DHT22;16482;51.046;4.498;2023-12-28T03:01:35;23.60;36.50
29539;DHT22;16482;51.046;4.498;2023-12-28T03:04:11;23.60;36.40
29539;DHT22;16482;51.046;4.498;2023-12-28T03:06:48;23.60;36.50
29539;DHT22;16482;51.046;4.498;2023-12-28T03:09:13;23.60;36.50
29539;DHT22;16482;51.046;4.498;2023-12-28T03:11:42;23.50;36.50
29539;DHT22;16482;51.046;4.498;2023-12-28T03:14:08;23.50;36.50
29539;DHT22;16482;51.046;4.498;2023-12-28T03:16:37;23.50;36.50
29539;DHT22;16482;51.046;4.498;2023-12-28T03:19:03;23.60;36.60
29539;DHT22;16482;51.046;4.498;2023-12-28T03:21:40;23.50;36.60
29539;DHT22;16482;51.046;4.498;2023-12-28T03:24:06;23.50;36.60
29539;DHT22;16482;51.046;4.498;2023-12-28T03:26:42;23.50;36.60
29539;DHT22;16482;51.046;4.498;2023-12-28T03:29:18;23.50;36.60
29539;DHT22;16482;51.046;4.498;2023-12-28T03:31:54;23.50;36.60
29539;DHT22;16482;51.046;4.498;2023-12-28T03:34:20;23.50;36.70
29539;DHT22;16482;51.046;4.498;2023-12-28T03:36:58;23.50;36.70
29539;DHT22;16482;51.046;4.498;2023-12-28T03:39:35;23.50;36.70
29539;DHT22;16482;51.046;4.498;2023-12-28T03:42:11;23.50;36.70
29539;DHT22;16482;51.046;4.498;2023-12-28T03:44:39;23.50;36.70
29539;DHT22;16482;51.046;4.498;2023-12-28T03:47:15;23.50;36.60
29539;DHT22;16482;51.046;4.498;2023-12-28T03:49:52;23.50;36.70
29539;DHT22;16482;51.046;4.498;2023-12-28T03:52:26;23.50;36.70
29539;DHT22;16482;51.046;4.498;2023-12-28T03:54:52;23.50;36.70
29539;DHT22;16482;51.046;4.498;2023-12-28T03:57:28;23.50;36.70
29539;DHT22;16482;51.046;4.498;2023-12-28T03:59:54;23.50;36.70
29539;DHT22;16482;51.046;4.498;2023-12-28T04:02:23;23.50;36.80
29539;DHT22;16482;51.046;4.498;2023-12-28T04:05:00;23.50;36.80
29539;DHT22;16482;51.046;4.498;2023-12-28T04:07:26;23.50;36.70
29539;DHT22;16482;51.046;4.498;2023-12-28T04:09:55;23.50;36.80
29539;DHT22;16482;51.046;4.498;2023-12-28T04:12:21;23.40;36.70
29539;DHT22;16482;51.046;4.498;2023-12-28T04:14:47;23.50;36.70
29539;DHT22;16482;51.046;4.498;2023-12-28T04:17:13;23.50;36.80
29539;DHT22;16482;51.046;4.498;2023-12-28T04:19:49;23.50;37.40
29539;DHT22;16482;51.046;4.498;2023-12-28T04:22:25;23.50;36.80
29539;DHT22;16482;51.046;4.498;2023-12-28T04:24:54;23.50;36.80
29539;DHT22;16482;51.046;4.498;2023-12-28T04:27:20;23.50;36.80
29539;DHT22;16482;51.046;4.498;2023-12-28T04:29:49;23.50;36.80
29539;DHT22;16482;51.046;4.498;2023-12-28T04:32:17;23.50;36.80
29539;DHT22;16482;51.046;4.498;2023-12-28T04:34:53;23.50;36.80
29539;DHT22;16482;51.046;4.498;2023-12-28T04:37:20;23.50;36.80
29539;DHT22;16482;51.046;4.498;2023-12-28T04:39:56;23.50;36.80
29539;DHT22;16482;51.046;4.498;2023-12-28T04:42:22;23.40;36.80
29539;DHT22;16482;51.046;4.498;2023-12-28T04:44:48;23.40;36.70
29539;DHT22;16482;51.046;4.498;2023-12-28T04:47:17;23.50;36.80
29539;DHT22;16482;51.046;4.498;2023-12-28T04:49:53;23.50;36.80
29539;DHT22;16482;51.046;4.498;2023-12-28T04:52:22;23.50;36.70
29539;DHT22;16482;51.046;4.498;2023-12-28T04:54:48;23.50;36.80
29539;DHT22;16482;51.046;4.498;2023-12-28T04:57:24;23.40;36.80
29539;DHT22;16482;51.046;4.498;2023-12-28T05:00:01;23.40;36.80
29539;DHT22;16482;51.046;4.498;2023-12-28T05:02:29;23.40;36.80
29539;DHT22;16482;51.046;4.498;2023-12-28T05:05:05;23.40;36.80
29539;DHT22;16482;51.046;4.498;2023-12-28T05:07:42;23.40;36.80
29539;DHT22;16482;51.046;4.498;2023-12-28T05:10:25;23.40;36.80
29539;DHT22;16482;51.046;4.498;2023-12-28T05:12:54;23.40;36.80
29539;DHT22;16482;51.046;4.498;2023-12-28T05:15:29;23.40;36.80
29539;DHT22;16482;51.046;4.498;2023-12-28T05:18:05;23.40;36.80
29539;DHT22;16482;51.046;4.498;2023-12-28T05:20:32;23.40;36.80
29539;DHT22;16482;51.046;4.498;2023-12-28T05:23:01;23.40;36.80
29539;DHT22;16482;51.046;4.498;2023-12-28T05:25:27;23.40;36.80
29539;DHT22;16482;51.046;4.498;2023-12-28T05:28:03;23.40;36.80
29539;DHT22;16482;51.046;4.498;2023-12-28T05:30:29;23.40;36.70
29539;DHT22;16482;51.046;4.498;2023-12-28T05:32:55;23.40;36.80
29539;DHT22;16482;51.046;4.498;2023-12-28T05:35:23;23.40;36.80
29539;DHT22;16482;51.046;4.498;2023-12-28T05:37:54;23.40;36.80
29539;DHT22;16482;51.046;4.498;2023-12-28T05:40:30;23.40;36.80
29539;DHT22;16482;51.046;4.498;2023-12-28T05:42:56;23.40;36.80
29539;DHT22;16482;51.046;4.498;2023-12-28T05:45:24;23.40;36.80
29539;DHT22;16482;51.046;4.498;2023-12-28T05:48:00;23.40;36.80
29539;DHT22;16482;51.046;4.498;2023-12-28T05:50:36;23.30;36.70
29539;DHT22;16482;51.046;4.498;2023-12-28T05:53:05;23.40;36.80
29539;DHT22;16482;51.046;4.498;2023-12-28T05:55:41;23.40;36.80
29539;DHT22;16482;51.046;4.498;2023-12-28T05:58:07;23.30;36.70
29539;DHT22;16482;51.046;4.498;2023-12-28T06:00:33;23.30;36.70
29539;DHT22;16482;51.046;4.498;2023-12-28T06:03:09;23.40;36.80
29539;DHT22;16482;51.046;4.498;2023-12-28T06:05:34;23.40;36.70
29539;DHT22;16482;51.046;4.498;2023-12-28T06:08:00;23.40;36.70
29539;DHT22;16482;51.046;4.498;2023-12-28T06:10:36;23.30;36.70
29539;DHT22;16482;51.046;4.498;2023-12-28T06:13:02;23.40;36.60
29539;DHT22;16482;51.046;4.498;2023-12-28T06:15:28;23.40;36.60
29539;DHT22;16482;51.046;4.498;2023-12-28T06:18:04;23.40;36.70
29539;DHT22;16482;51.046;4.498;2023-12-28T06:20:30;23.40;36.60
29539;DHT22;16482;51.046;4.498;2023-12-28T06:23:07;23.40;36.70
29539;DHT22;16482;51.046;4.498;2023-12-28T06:25:35;23.40;36.60
29539;DHT22;16482;51.046;4.498;2023-12-28T06:28:10;23.50;36.50
29539;DHT22;16482;51.046;4.498;2023-12-28T06:30:36;23.60;36.50
29539;DHT22;16482;51.046;4.498;2023-12-28T06:33:05;23.60;36.40
29539;DHT22;16482;51.046;4.498;2023-12-28T06:35:41;23.60;36.30
29539;DHT22;16482;51.046;4.498;2023-12-28T06:38:17;23.70;36.30
29539;DHT22;16482;51.046;4.498;2023-12-28T06:40:43;23.80;36.20
29539;DHT22;16482;51.046;4.498;2023-12-28T06:43:09;23.80;36.10
29539;DHT22;16482;51.046;4.498;2023-12-28T06:45:38;23.80;36.10
29539;DHT22;16482;51.046;4.498;2023-12-28T06:48:04;23.90;36.00
29539;DHT22;16482;51.046;4.498;2023-12-28T06:50:37;23.90;35.90
29539;DHT22;16482;51.046;4.498;2023-12-28T06:53:06;23.90;35.90
29539;DHT22;16482;51.046;4.498;2023-12-28T06:55:32;24.00;35.80
29539;DHT22;16482;51.046;4.498;2023-12-28T06:58:01;24.00;35.70
29539;DHT22;16482;51.046;4.498;2023-12-28T07:00:36;24.10;35.70
29539;DHT22;16482;51.046;4.498;2023-12-28T07:03:12;24.10;35.60
29539;DHT22;16482;51.046;4.498;2023-12-28T07:05:48;24.10;35.60
29539;DHT22;16482;51.046;4.498;2023-12-28T07:08:24;24.10;35.60
29539;DHT22;16482;51.046;4.498;2023-12-28T07:11:02;24.10;35.50
29539;DHT22;16482;51.046;4.498;2023-12-28T07:13:47;24.20;35.40
29539;DHT22;16482;51.046;4.498;2023-12-28T07:16:13;24.20;35.40
29539;DHT22;16482;51.046;4.498;2023-12-28T07:18:43;24.20;35.40
29539;DHT22;16482;51.046;4.498;2023-12-28T07:21:09;24.20;35.40
29539;DHT22;16482;51.046;4.498;2023-12-28T07:23:35;24.20;35.30
29539;DHT22;16482;51.046;4.498;2023-12-28T07:26:15;24.30;35.30
29539;DHT22;16482;51.046;4.498;2023-12-28T07:28:44;24.20;35.30
29539;DHT22;16482;51.046;4.498;2023-12-28T07:31:27;24.30;35.40
29539;DHT22;16482;51.046;4.498;2023-12-28T07:34:03;24.30;35.30
29539;DHT22;16482;51.046;4.498;2023-12-28T07:36:40;24.30;35.30
29539;DHT22;16482;51.046;4.498;2023-12-28T07:39:13;24.30;35.30
29539;DHT22;16482;51.046;4.498;2023-12-28T07:41:40;24.30;35.30
29539;DHT22;16482;51.046;4.498;2023-12-28T07:44:06;24.30;35.20
29539;DHT22;16482;51.046;4.498;2023-12-28T07:46:42;24.30;35.20
29539;DHT22;16482;51.046;4.498;2023-12-28T07:49:10;24.30;35.20
29539;DHT22;16482;51.046;4.498;2023-12-28T07:51:46;24.30;35.30
29539;DHT22;16482;51.046;4.498;2023-12-28T07:54:15;24.30;35.30
29539;DHT22;16482;51.046;4.498;2023-12-28T07:56:41;24.30;35.30
29539;DHT22;16482;51.046;4.498;2023-12-28T07:59:07;24.30;35.30
29539;DHT22;16482;51.046;4.498;2023-12-28T08:01:35;24.30;35.90
29539;DHT22;16482;51.046;4.498;2023-12-28T08:04:11;24.20;35.40
29539;DHT22;16482;51.046;4.498;2023-12-28T08:06:37;24.30;35.60
29539;DHT22;16482;51.046;4.498;2023-12-28T08:09:06;24.20;35.80
29539;DHT22;16482;51.046;4.498;2023-12-28T08:11:42;24.20;35.90
29539;DHT22;16482;51.046;4.498;2023-12-28T08:14:18;24.30;36.00
29539;DHT22;16482;51.046;4.498;2023-12-28T08:16:44;24.30;36.10
29539;DHT22;16482;51.046;4.498;2023-12-28T08:19:11;24.20;35.70
29539;DHT22;16482;51.046;4.498;2023-12-28T08:21:37;24.20;36.00
29539;DHT22;16482;51.046;4.498;2023-12-28T08:24:03;24.20;36.00
29539;DHT22;16482;51.046;4.498;2023-12-28T08:26:29;24.20;35.60
29539;DHT22;16482;51.046;4.498;2023-12-28T08:28:58;24.20;35.70
29539;DHT22;16482;51.046;4.498;2023-12-28T08:31:24;24.20;35.60
29539;DHT22;16482;51.046;4.498;2023-12-28T08:33:57;24.10;35.50
29539;DHT22;16482;51.046;4.498;2023-12-28T08:36:26;24.10;35.30
29539;DHT22;16482;51.046;4.498;2023-12-28T08:38:52;24.10;35.30
29539;DHT22;16482;51.046;4.498;2023-12-28T08:41:22;24.10;35.30
29539;DHT22;16482;51.046;4.498;2023-12-28T08:43:53;24.10;36.80
29539;DHT22;16482;51.046;4.498;2023-12-28T08:46:22;24.10;37.10
29539;DHT22;16482;51.046;4.498;2023-12-28T08:48:50;24.10;37.30
29539;DHT22;16482;51.046;4.498;2023-12-28T08:51:18;24.10;37.70
29539;DHT22;16482;51.046;4.498;2023-12-28T08:53:48;24.10;38.20
29539;DHT22;16482;51.046;4.498;2023-12-28T08:56:19;24.10;38.40
29539;DHT22;16482;51.046;4.498;2023-12-28T08:58:46;24.10;38.40
29539;DHT22;16482;51.046;4.498;2023-12-28T09:01:22;24.10;38.40
29539;DHT22;16482;51.046;4.498;2023-12-28T09:03:51;24.10;37.90
29539;DHT22;16482;51.046;4.498;2023-12-28T09:06:18;24.10;37.70
29539;DHT22;16482;51.046;4.498;2023-12-28T09:08:47;24.20;37.60
29539;DHT22;16482;51.046;4.498;2023-12-28T09:11:23;24.20;37.60
29539;DHT22;16482;51.046;4.498;2023-12-28T09:13:52;24.10;37.60
29539;DHT22;16482;51.046;4.498;2023-12-28T09:16:18;24.20;37.50
29539;DHT22;16482;51.046;4.498;2023-12-28T09:18:44;24.10;37.40
29539;DHT22;16482;51.046;4.498;2023-12-28T09:21:20;24.20;37.30
29539;DHT22;16482;51.046;4.498;2023-12-28T09:23:46;24.10;37.30
29539;DHT22;16482;51.046;4.498;2023-12-28T09:26:22;24.10;37.20
29539;DHT22;16482;51.046;4.498;2023-12-28T09:28:58;24.10;37.20
29539;DHT22;16482;51.046;4.498;2023-12-28T09:31:25;24.10;37.10
29539;DHT22;16482;51.046;4.498;2023-12-28T09:33:53;24.10;37.00
29539;DHT22;16482;51.046;4.498;2023-12-28T09:36:30;24.10;36.90
29539;DHT22;16482;51.046;4.498;2023-12-28T09:38:56;24.10;36.90
29539;DHT22;16482;51.046;4.498;2023-12-28T09:41:26;24.10;37.00
29539;DHT22;16482;51.046;4.498;2023-12-28T09:44:16;24.00;36.70
29539;DHT22;16482;51.046;4.498;2023-12-28T09:46:45;24.10;36.60
29539;DHT22;16482;51.046;4.498;2023-12-28T09:49:12;24.00;36.70
29539;DHT22;16482;51.046;4.498;2023-12-28T09:51:48;24.10;36.70
29539;DHT22;16482;51.046;4.498;2023-12-28T09:54:16;24.00;36.50
29539;DHT22;16482;51.046;4.498;2023-12-28T09:56:44;24.00;36.50
29539;DHT22;16482;51.046;4.498;2023-12-28T09:59:21;24.00;36.40
29539;DHT22;16482;51.046;4.498;2023-12-28T10:01:47;24.00;36.50
29539;DHT22;16482;51.046;4.498;2023-12-28T10:04:23;24.00;36.40
29539;DHT22;16482;51.046;4.498;2023-12-28T10:07:16;23.90;36.50
29539;DHT22;16482;51.046;4.498;2023-12-28T10:09:49;23.90;36.50
29539;DHT22;16482;51.046;4.498;2023-12-28T10:12:15;23.90;36.50
29539;DHT22;16482;51.046;4.498;2023-12-28T10:14:52;23.90;36.50
29539;DHT22;16482;51.046;4.498;2023-12-28T10:17:18;23.80;36.50
29539;DHT22;16482;51.046;4.498;2023-12-28T10:19:53;23.80;36.50
29539;DHT22;16482;51.046;4.498;2023-12-28T10:22:29;23.80;36.50
29539;DHT22;16482;51.046;4.498;2023-12-28T10:25:06;23.80;36.60
29539;DHT22;16482;51.046;4.498;2023-12-28T10:27:40;23.80;36.50
29539;DHT22;16482;51.046;4.498;2023-12-28T10:30:09;23.80;36.60
29539;DHT22;16482;51.046;4.498;2023-12-28T10:32:41;23.80;36.50
29539;DHT22;16482;51.046;4.498;2023-12-28T10:35:20;23.80;36.60
29539;DHT22;16482;51.046;4.498;2023-12-28T10:37:59;23.70;36.60
29539;DHT22;16482;51.046;4.498;2023-12-28T10:40:28;23.70;36.60
29539;DHT22;16482;51.046;4.498;2023-12-28T10:43:02;23.70;36.60
29539;DHT22;16482;51.046;4.498;2023-12-28T10:45:32;23.70;36.70
29539;DHT22;16482;51.046;4.498;2023-12-28T10:48:10;23.70;36.70
29539;DHT22;16482;51.046;4.498;2023-12-28T10:50:42;23.70;36.60
29539;DHT22;16482;51.046;4.498;2023-12-28T10:53:44;23.70;36.60
29539;DHT22;16482;51.046;4.498;2023-12-28T10:56:42;23.70;36.60
29539;DHT22;16482;51.046;4.498;2023-12-28T11:02:27;23.70;36.50
29539;DHT22;16482;51.046;4.498;2023-12-28T11:05:02;23.70;36.60
29539;DHT22;16482;51.046;4.498;2023-12-28T11:07:41;23.70;36.60
29539;DHT22;16482;51.046;4.498;2023-12-28T11:10:13;23.70;36.50
29539;DHT22;16482;51.046;4.498;2023-12-28T11:12:40;23.70;36.50
29539;DHT22;16482;51.046;4.498;2023-12-28T11:15:09;23.70;36.50
29539;DHT22;16482;51.046;4.498;2023-12-28T11:17:39;23.70;36.50
29539;DHT22;16482;51.046;4.498;2023-12-28T11:20:06;23.70;36.50
29539;DHT22;16482;51.046;4.498;2023-12-28T11:22:35;23.70;36.50
29539;DHT22;16482;51.046;4.498;2023-12-28T11:25:31;23.60;36.40
29539;DHT22;16482;51.046;4.498;2023-12-28T11:28:12;23.60;36.40
29539;DHT22;16482;51.046;4.498;2023-12-28T11:30:38;23.70;36.50
29539;DHT22;16482;51.046;4.498;2023-12-28T11:33:07;23.60;36.40
29539;DHT22;16482;51.046;4.498;2023-12-28T11:35:43;23.70;36.50
29539;DHT22;16482;51.046;4.498;2023-12-28T11:38:15;23.60;36.40
29539;DHT22;16482;51.046;4.498;2023-12-28T11:40:45;23.70;36.40
29539;DHT22;16482;51.046;4.498;2023-12-28T11:43:27;23.70;36.40
29539;DHT22;16482;51.046;4.498;2023-12-28T11:46:03;23.60;36.40
29539;DHT22;16482;51.046;4.498;2023-12-28T11:48:31;23.60;36.40
29539;DHT22;16482;51.046;4.498;2023-12-28T11:51:01;23.70;36.50
29539;DHT22;16482;51.046;4.498;2023-12-28T11:53:40;23.60;36.40
29539;DHT22;16482;51.046;4.498;2023-12-28T11:56:09;23.60;36.30
29539;DHT22;16482;51.046;4.498;2023-12-28T11:58:44;23.70;36.50
29539;DHT22;16482;51.046;4.498;2023-12-28T12:01:15;23.70;36.50
29539;DHT22;16482;51.046;4.498;2023-12-28T12:03:41;23.70;36.50
29539;DHT22;16482;51.046;4.498;2023-12-28T12:06:19;23.80;36.60
29539;DHT22;16482;51.046;4.498;2023-12-28T12:08:47;23.70;36.60
29539;DHT22;16482;51.046;4.498;2023-12-28T12:11:23;23.70;36.70
29539;DHT22;16482;51.046;4.498;2023-12-28T12:13:51;23.80;36.80
29539;DHT22;16482;51.046;4.498;2023-12-28T12:16:20;23.80;36.80
29539;DHT22;16482;51.046;4.498;2023-12-28T12:18:48;23.80;36.90
29539;DHT22;16482;51.046;4.498;2023-12-28T12:21:14;23.80;36.90
29539;DHT22;16482;51.046;4.498;2023-12-28T12:23:50;23.90;36.90
29539;DHT22;16482;51.046;4.498;2023-12-28T12:26:18;23.90;37.00
29539;DHT22;16482;51.046;4.498;2023-12-28T12:28:44;23.90;37.00
29539;DHT22;16482;51.046;4.498;2023-12-28T12:31:18;23.90;37.10
29539;DHT22;16482;51.046;4.498;2023-12-28T12:33:45;24.00;37.00
29539;DHT22;16482;51.046;4.498;2023-12-28T12:36:21;24.00;37.10
29539;DHT22;16482;51.046;4.498;2023-12-28T12:38:49;24.00;37.20
29539;DHT22;16482;51.046;4.498;2023-12-28T12:41:15;24.00;37.20
29539;DHT22;16482;51.046;4.498;2023-12-28T12:43:50;24.00;37.20
29539;DHT22;16482;51.046;4.498;2023-12-28T12:46:26;24.00;37.20
29539;DHT22;16482;51.046;4.498;2023-12-28T12:48:59;24.00;37.30
29539;DHT22;16482;51.046;4.498;2023-12-28T12:51:28;24.00;37.20
29539;DHT22;16482;51.046;4.498;2023-12-28T12:54:00;24.00;37.20
29539;DHT22;16482;51.046;4.498;2023-12-28T12:56:35;24.00;37.20
29539;DHT22;16482;51.046;4.498;2023-12-28T12:59:01;24.00;37.30
29539;DHT22;16482;51.046;4.498;2023-12-28T13:01:26;24.00;37.20
29539;DHT22;16482;51.046;4.498;2023-12-28T13:03:56;24.00;37.20
29539;DHT22;16482;51.046;4.498;2023-12-28T13:06:24;24.00;37.20
29539;DHT22;16482;51.046;4.498;2023-12-28T13:08:50;24.00;37.10
29539;DHT22;16482;51.046;4.498;2023-12-28T13:11:15;24.00;37.20
29539;DHT22;16482;51.046;4.498;2023-12-28T13:13:54;24.00;37.10
29539;DHT22;16482;51.046;4.498;2023-12-28T13:16:24;24.00;37.20
29539;DHT22;16482;51.046;4.498;2023-12-28T13:18:52;24.00;37.10
29539;DHT22;16482;51.046;4.498;2023-12-28T13:21:26;24.00;37.60
29539;DHT22;16482;51.046;4.498;2023-12-28T13:23:51;24.00;37.40
29539;DHT22;16482;51.046;4.498;2023-12-28T13:26:17;24.00;37.90
29539;DHT22;16482;51.046;4.498;2023-12-28T13:28:46;24.00;38.30
29539;DHT22;16482;51.046;4.498;2023-12-28T13:31:22;23.90;38.40
29539;DHT22;16482;51.046;4.498;2023-12-28T13:33:48;23.80;38.40
29539;DHT22;16482;51.046;4.498;2023-12-28T13:36:23;23.90;38.70
29539;DHT22;16482;51.046;4.498;2023-12-28T13:38:58;23.80;38.70
29539;DHT22;16482;51.046;4.498;2023-12-28T13:41:24;23.80;38.70
29539;DHT22;16482;51.046;4.498;2023-12-28T13:43:49;23.80;38.70
29539;DHT22;16482;51.046;4.498;2023-12-28T13:46:26;23.80;38.80
29539;DHT22;16482;51.046;4.498;2023-12-28T13:48:51;23.70;38.80
29539;DHT22;16482;51.046;4.498;2023-12-28T13:51:27;23.70;38.90
29539;DHT22;16482;51.046;4.498;2023-12-28T13:53:56;23.70;38.90
29539;DHT22;16482;51.046;4.498;2023-12-28T13:56:22;23.60;38.90
29539;DHT22;16482;51.046;4.498;2023-12-28T13:58:48;23.60;38.80
29539;DHT22;16482;51.046;4.498;2023-12-28T14:01:17;23.60;38.80
29539;DHT22;16482;51.046;4.498;2023-12-28T14:03:46;23.60;38.90
29539;DHT22;16482;51.046;4.498;2023-12-28T14:06:19;23.60;38.80
29539;DHT22;16482;51.046;4.498;2023-12-28T14:08:52;23.60;38.80
29539;DHT22;16482;51.046;4.498;2023-12-28T14:11:18;23.60;38.80
29539;DHT22;16482;51.046;4.498;2023-12-28T14:13:44;23.60;38.80
29539;DHT22;16482;51.046;4.498;2023-12-28T14:16:20;23.60;38.80
29539;DHT22;16482;51.046;4.498;2023-12-28T14:18:49;23.50;38.80
29539;DHT22;16482;51.046;4.498;2023-12-28T14:21:17;23.50;38.80
29539;DHT22;16482;51.046;4.498;2023-12-28T14:23:46;23.50;38.80
29539;DHT22;16482;51.046;4.498;2023-12-28T14:26:20;23.50;38.90
29539;DHT22;16482;51.046;4.498;2023-12-28T14:28:57;23.50;38.90
29539;DHT22;16482;51.046;4.498;2023-12-28T14:31:33;23.50;39.00
29539;DHT22;16482;51.046;4.498;2023-12-28T14:33:59;23.50;39.00
29539;DHT22;16482;51.046;4.498;2023-12-28T14:36:36;23.40;39.00
29539;DHT22;16482;51.046;4.498;2023-12-28T14:39:16;23.50;39.00
29539;DHT22;16482;51.046;4.498;2023-12-28T14:41:55;23.50;39.20
29539;DHT22;16482;51.046;4.498;2023-12-28T14:44:32;23.50;39.30
29539;DHT22;16482;51.046;4.498;2023-12-28T14:47:05;23.50;39.40
29539;DHT22;16482;51.046;4.498;2023-12-28T14:49:42;23.50;39.30
29539;DHT22;16482;51.046;4.498;2023-12-28T14:52:18;23.50;39.50
29539;DHT22;16482;51.046;4.498;2023-12-28T14:54:46;23.50;39.50
29539;DHT22;16482;51.046;4.498;2023-12-28T14:57:12;23.50;39.60
29539;DHT22;16482;51.046;4.498;2023-12-28T14:59:48;23.50;39.60
29539;DHT22;16482;51.046;4.498;2023-12-28T15:02:14;23.60;39.70
29539;DHT22;16482;51.046;4.498;2023-12-28T15:04:50;23.50;39.60
29539;DHT22;16482;51.046;4.498;2023-12-28T15:07:26;23.50;39.60
29539;DHT22;16482;51.046;4.498;2023-12-28T15:09:53;23.50;39.50
29539;DHT22;16482;51.046;4.498;2023-12-28T15:12:22;23.60;39.50
29539;DHT22;16482;51.046;4.498;2023-12-28T15:14:57;23.50;39.30
29539;DHT22;16482;51.046;4.498;2023-12-28T15:17:26;23.60;39.30
29539;DHT22;16482;51.046;4.498;2023-12-28T15:20:03;23.50;39.10
29539;DHT22;16482;51.046;4.498;2023-12-28T15:22:36;23.50;38.90
29539;DHT22;16482;51.046;4.498;2023-12-28T15:25:03;23.50;38.80
29539;DHT22;16482;51.046;4.498;2023-12-28T15:27:39;23.50;38.70
29539;DHT22;16482;51.046;4.498;2023-12-28T15:30:06;23.60;38.60
29539;DHT22;16482;51.046;4.498;2023-12-28T15:32:32;23.60;38.50
29539;DHT22;16482;51.046;4.498;2023-12-28T15:35:09;23.50;38.40
29539;DHT22;16482;51.046;4.498;2023-12-28T15:37:45;23.60;38.30
29539;DHT22;16482;51.046;4.498;2023-12-28T15:40:22;23.60;38.30
29539;DHT22;16482;51.046;4.498;2023-12-28T15:42:59;23.60;38.20
29539;DHT22;16482;51.046;4.498;2023-12-28T15:45:30;23.60;38.10
29539;DHT22;16482;51.046;4.498;2023-12-28T15:48:07;23.60;38.00
29539;DHT22;16482;51.046;4.498;2023-12-28T15:50:33;23.60;38.30
29539;DHT22;16482;51.046;4.498;2023-12-28T15:52:59;23.60;38.30
29539;DHT22;16482;51.046;4.498;2023-12-28T15:55:35;23.60;38.20
29539;DHT22;16482;51.046;4.498;2023-12-28T15:58:12;23.60;38.00
29539;DHT22;16482;51.046;4.498;2023-12-28T16:00:49;23.70;38.00